sensor_id;sensor_type;location;lat;lon;timestamp;P1;durP1;ratioP1;P2;durP2;ratioP2
18190;SDS011;47004;51.366;12.348;2023-07-13T00:00:46;2.73;;;1.10;;
18190;SDS011;47004;51.366;12.348;2023-07-13T00:02:48;3.33;;;1.00;;
18190;SDS011;47004;51.366;12.348;2023-07-13T00:04:49;2.20;;;1.10;;
18190;SDS011;47004;51.366;12.348;2023-07-13T00:06:51;2.70;;;1.00;;
18190;SDS011;47004;51.366;12.348;2023-07-13T00:08:53;2.43;;;1.10;;
18190;SDS011;47004;51.366;12.348;2023-07-13T00:10:54;1.87;;;1.20;;
18190;SDS011;47004;51.366;12.348;2023-07-13T00:12:57;3.30;;;1.30;;
18190;SDS011;47004;51.366;12.348;2023-07-13T00:15:00;1.50;;;1.10;;
18190;SDS011;47004;51.366;12.348;2023-07-13T00:17:04;1.87;;;1.10;;
18190;SDS011;47004;51.366;12.348;2023-07-13T00:19:06;1.43;;;1.00;;
18190;SDS011;47004;51.366;12.348;2023-07-13T00:21:07;1.97;;;1.23;;
18190;SDS011;47004;51.366;12.348;2023-07-13T00:23:09;2.50;;;1.03;;
18190;SDS011;47004;51.366;12.348;2023-07-13T00:25:11;3.77;;;1.17;;
18190;SDS011;47004;51.366;12.348;2023-07-13T00:27:13;2.43;;;1.10;;
18190;SDS011;47004;51.366;12.348;2023-07-13T00:29:15;1.77;;;1.20;;
18190;SDS011;47004;51.366;12.348;2023-07-13T00:31:17;2.47;;;1.20;;
18190;SDS011;47004;51.366;12.348;2023-07-13T00:33:19;1.90;;;1.10;;
18190;SDS011;47004;51.366;12.348;2023-07-13T00:35:23;1.83;;;1.20;;
18190;SDS011;47004;51.366;12.348;2023-07-13T00:37:25;1.83;;;1.17;;
18190;SDS011;47004;51.366;12.348;2023-07-13T00:39:26;2.27;;;1.37;;
18190;SDS011;47004;51.366;12.348;2023-07-13T00:41:29;2.20;;;1.13;;
18190;SDS011;47004;51.366;12.348;2023-07-13T00:43:31;1.90;;;1.20;;
18190;SDS011;47004;51.366;12.348;2023-07-13T00:48:14;2.37;;;1.20;;
18190;SDS011;47004;51.366;12.348;2023-07-13T00:50:21;2.67;;;1.20;;
18190;SDS011;47004;51.366;12.348;2023-07-13T00:52:23;3.07;;;1.30;;
18190;SDS011;47004;51.366;12.348;2023-07-13T00:54:26;5.87;;;1.20;;
18190;SDS011;47004;51.366;12.348;2023-07-13T00:56:31;2.13;;;1.27;;
18190;SDS011;47004;51.366;12.348;2023-07-13T00:58:35;3.30;;;1.30;;
18190;SDS011;47004;51.366;12.348;2023-07-13T01:00:38;2.77;;;0.90;;
18190;SDS011;47004;51.366;12.348;2023-07-13T01:02:41;3.17;;;1.10;;
18190;SDS011;47004;51.366;12.348;2023-07-13T01:04:47;2.97;;;1.23;;
18190;SDS011;47004;51.366;12.348;2023-07-13T01:06:49;2.23;;;1.07;;
18190;SDS011;47004;51.366;12.348;2023-07-13T01:08:51;3.83;;;1.10;;
18190;SDS011;47004;51.366;12.348;2023-07-13T01:10:53;4.07;;;1.47;;
18190;SDS011;47004;51.366;12.348;2023-07-13T01:12:56;2.77;;;1.20;;
18190;SDS011;47004;51.366;12.348;2023-07-13T01:14:59;2.10;;;1.17;;
18190;SDS011;47004;51.366;12.348;2023-07-13T01:17:05;3.90;;;1.20;;
18190;SDS011;47004;51.366;12.348;2023-07-13T01:19:12;3.30;;;1.20;;
18190;SDS011;47004;51.366;12.348;2023-07-13T01:21:32;3.00;;;1.00;;
18190;SDS011;47004;51.366;12.348;2023-07-13T01:23:34;3.37;;;0.90;;
18190;SDS011;47004;51.366;12.348;2023-07-13T01:25:36;1.90;;;1.00;;
18190;SDS011;47004;51.366;12.348;2023-07-13T01:27:38;3.03;;;1.00;;
18190;SDS011;47004;51.366;12.348;2023-07-13T01:29:42;3.03;;;1.00;;
18190;SDS011;47004;51.366;12.348;2023-07-13T01:31:47;2.17;;;1.00;;
18190;SDS011;47004;51.366;12.348;2023-07-13T01:33:49;4.57;;;1.20;;
18190;SDS011;47004;51.366;12.348;2023-07-13T01:35:51;2.83;;;1.20;;
18190;SDS011;47004;51.366;12.348;2023-07-13T01:37:54;1.70;;;1.00;;
18190;SDS011;47004;51.366;12.348;2023-07-13T01:39:56;3.57;;;1.00;;
18190;SDS011;47004;51.366;12.348;2023-07-13T01:41:58;3.43;;;1.10;;
18190;SDS011;47004;51.366;12.348;2023-07-13T01:44:00;2.57;;;1.30;;
18190;SDS011;47004;51.366;12.348;2023-07-13T01:46:01;4.10;;;1.30;;
18190;SDS011;47004;51.366;12.348;2023-07-13T01:48:04;3.00;;;1.10;;
18190;SDS011;47004;51.366;12.348;2023-07-13T01:50:06;3.97;;;1.20;;
18190;SDS011;47004;51.366;12.348;2023-07-13T01:52:09;3.07;;;1.40;;
18190;SDS011;47004;51.366;12.348;2023-07-13T01:54:12;3.50;;;1.20;;
18190;SDS011;47004;51.366;12.348;2023-07-13T01:56:14;2.17;;;1.27;;
18190;SDS011;47004;51.366;12.348;2023-07-13T01:58:16;2.07;;;1.10;;
18190;SDS011;47004;51.366;12.348;2023-07-13T02:00:18;2.40;;;1.10;;
18190;SDS011;47004;51.366;12.348;2023-07-13T02:02:20;4.70;;;1.43;;
18190;SDS011;47004;51.366;12.348;2023-07-13T02:04:22;2.80;;;0.93;;
18190;SDS011;47004;51.366;12.348;2023-07-13T02:06:23;3.17;;;1.30;;
18190;SDS011;47004;51.366;12.348;2023-07-13T02:08:25;3.50;;;1.30;;
18190;SDS011;47004;51.366;12.348;2023-07-13T02:10:29;1.97;;;1.20;;
18190;SDS011;47004;51.366;12.348;2023-07-13T02:12:31;4.80;;;1.30;;
18190;SDS011;47004;51.366;12.348;2023-07-13T02:14:32;2.90;;;1.40;;
18190;SDS011;47004;51.366;12.348;2023-07-13T02:16:34;3.40;;;1.30;;
18190;SDS011;47004;51.366;12.348;2023-07-13T02:18:36;5.30;;;1.10;;
18190;SDS011;47004;51.366;12.348;2023-07-13T02:20:38;3.00;;;1.20;;
18190;SDS011;47004;51.366;12.348;2023-07-13T02:22:40;4.13;;;1.13;;
18190;SDS011;47004;51.366;12.348;2023-07-13T02:24:42;2.60;;;1.17;;
18190;SDS011;47004;51.366;12.348;2023-07-13T02:26:45;3.00;;;1.30;;
18190;SDS011;47004;51.366;12.348;2023-07-13T02:28:47;2.50;;;1.33;;
18190;SDS011;47004;51.366;12.348;2023-07-13T02:30:49;1.97;;;1.00;;
18190;SDS011;47004;51.366;12.348;2023-07-13T02:32:50;4.90;;;1.47;;
18190;SDS011;47004;51.366;12.348;2023-07-13T02:34:52;4.27;;;1.40;;
18190;SDS011;47004;51.366;12.348;2023-07-13T02:36:54;3.50;;;1.20;;
18190;SDS011;47004;51.366;12.348;2023-07-13T02:38:57;2.90;;;1.30;;
18190;SDS011;47004;51.366;12.348;2023-07-13T02:41:02;3.33;;;1.70;;
18190;SDS011;47004;51.366;12.348;2023-07-13T02:43:06;2.00;;;1.43;;
18190;SDS011;47004;51.366;12.348;2023-07-13T02:45:07;2.53;;;1.50;;
18190;SDS011;47004;51.366;12.348;2023-07-13T02:47:10;2.37;;;1.67;;
18190;SDS011;47004;51.366;12.348;2023-07-13T02:49:13;2.27;;;1.23;;
18190;SDS011;47004;51.366;12.348;2023-07-13T02:51:14;3.93;;;1.50;;
18190;SDS011;47004;51.366;12.348;2023-07-13T02:53:16;3.80;;;1.30;;
18190;SDS011;47004;51.366;12.348;2023-07-13T02:55:18;3.20;;;1.30;;
18190;SDS011;47004;51.366;12.348;2023-07-13T02:57:20;1.50;;;1.00;;
18190;SDS011;47004;51.366;12.348;2023-07-13T02:59:23;6.87;;;1.23;;
18190;SDS011;47004;51.366;12.348;2023-07-13T03:01:25;3.00;;;1.30;;
18190;SDS011;47004;51.366;12.348;2023-07-13T03:03:27;2.33;;;1.30;;
18190;SDS011;47004;51.366;12.348;2023-07-13T03:05:28;3.33;;;1.43;;
18190;SDS011;47004;51.366;12.348;2023-07-13T03:07:30;2.30;;;1.47;;
18190;SDS011;47004;51.366;12.348;2023-07-13T03:09:34;2.20;;;1.40;;
18190;SDS011;47004;51.366;12.348;2023-07-13T03:11:37;3.17;;;1.40;;
18190;SDS011;47004;51.366;12.348;2023-07-13T03:13:39;5.40;;;1.77;;
18190;SDS011;47004;51.366;12.348;2023-07-13T03:15:42;4.33;;;1.47;;
18190;SDS011;47004;51.366;12.348;2023-07-13T03:17:44;4.50;;;1.27;;
18190;SDS011;47004;51.366;12.348;2023-07-13T03:19:46;2.70;;;1.40;;
18190;SDS011;47004;51.366;12.348;2023-07-13T03:21:49;3.37;;;1.50;;
18190;SDS011;47004;51.366;12.348;2023-07-13T03:23:51;3.40;;;1.50;;
18190;SDS011;47004;51.366;12.348;2023-07-13T03:26:00;4.17;;;1.80;;
18190;SDS011;47004;51.366;12.348;2023-07-13T03:28:03;4.70;;;1.70;;
18190;SDS011;47004;51.366;12.348;2023-07-13T03:30:06;6.87;;;2.00;;
18190;SDS011;47004;51.366;12.348;2023-07-13T03:32:10;4.20;;;1.53;;
18190;SDS011;47004;51.366;12.348;2023-07-13T03:34:12;2.43;;;1.53;;
18190;SDS011;47004;51.366;12.348;2023-07-13T03:36:14;3.27;;;1.60;;
18190;SDS011;47004;51.366;12.348;2023-07-13T03:38:19;4.37;;;1.57;;
18190;SDS011;47004;51.366;12.348;2023-07-13T03:40:21;3.97;;;1.83;;
18190;SDS011;47004;51.366;12.348;2023-07-13T03:42:23;3.70;;;1.67;;
18190;SDS011;47004;51.366;12.348;2023-07-13T03:44:25;3.60;;;1.90;;
18190;SDS011;47004;51.366;12.348;2023-07-13T03:46:27;4.70;;;1.50;;
18190;SDS011;47004;51.366;12.348;2023-07-13T03:48:30;3.37;;;1.63;;
18190;SDS011;47004;51.366;12.348;2023-07-13T03:50:31;3.27;;;1.57;;
18190;SDS011;47004;51.366;12.348;2023-07-13T03:52:33;1.90;;;1.50;;
18190;SDS011;47004;51.366;12.348;2023-07-13T03:54:35;2.80;;;1.70;;
18190;SDS011;47004;51.366;12.348;2023-07-13T03:56:37;2.80;;;1.70;;
18190;SDS011;47004;51.366;12.348;2023-07-13T03:58:40;5.73;;;1.60;;
18190;SDS011;47004;51.366;12.348;2023-07-13T04:00:42;3.90;;;1.60;;
18190;SDS011;47004;51.366;12.348;2023-07-13T04:02:44;5.83;;;2.00;;
18190;SDS011;47004;51.366;12.348;2023-07-13T04:04:48;4.27;;;1.63;;
18190;SDS011;47004;51.366;12.348;2023-07-13T04:06:50;3.80;;;1.90;;
18190;SDS011;47004;51.366;12.348;2023-07-13T04:08:53;4.47;;;1.70;;
18190;SDS011;47004;51.366;12.348;2023-07-13T04:10:56;5.60;;;2.00;;
18190;SDS011;47004;51.366;12.348;2023-07-13T04:12:59;4.63;;;1.60;;
18190;SDS011;47004;51.366;12.348;2023-07-13T04:15:00;2.13;;;1.70;;
18190;SDS011;47004;51.366;12.348;2023-07-13T04:17:02;5.60;;;1.60;;
18190;SDS011;47004;51.366;12.348;2023-07-13T04:19:04;2.70;;;1.60;;
18190;SDS011;47004;51.366;12.348;2023-07-13T04:21:07;3.93;;;2.00;;
18190;SDS011;47004;51.366;12.348;2023-07-13T04:23:10;2.70;;;1.33;;
18190;SDS011;47004;51.366;12.348;2023-07-13T04:25:12;3.30;;;1.70;;
18190;SDS011;47004;51.366;12.348;2023-07-13T04:27:14;3.53;;;1.50;;
18190;SDS011;47004;51.366;12.348;2023-07-13T04:29:15;4.40;;;1.80;;
18190;SDS011;47004;51.366;12.348;2023-07-13T04:31:17;3.47;;;1.60;;
18190;SDS011;47004;51.366;12.348;2023-07-13T04:33:20;4.37;;;2.00;;
18190;SDS011;47004;51.366;12.348;2023-07-13T04:35:23;3.27;;;1.60;;
18190;SDS011;47004;51.366;12.348;2023-07-13T04:37:26;3.10;;;1.77;;
18190;SDS011;47004;51.366;12.348;2023-07-13T04:39:29;4.87;;;2.20;;
18190;SDS011;47004;51.366;12.348;2023-07-13T04:41:31;6.47;;;1.67;;
18190;SDS011;47004;51.366;12.348;2023-07-13T04:43:33;3.60;;;1.73;;
18190;SDS011;47004;51.366;12.348;2023-07-13T04:45:36;4.10;;;1.83;;
18190;SDS011;47004;51.366;12.348;2023-07-13T04:47:38;4.40;;;1.63;;
18190;SDS011;47004;51.366;12.348;2023-07-13T04:49:40;2.47;;;2.07;;
18190;SDS011;47004;51.366;12.348;2023-07-13T04:51:42;2.67;;;1.60;;
18190;SDS011;47004;51.366;12.348;2023-07-13T04:53:45;3.57;;;1.50;;
18190;SDS011;47004;51.366;12.348;2023-07-13T04:55:47;2.13;;;1.60;;
18190;SDS011;47004;51.366;12.348;2023-07-13T04:57:49;4.67;;;1.90;;
18190;SDS011;47004;51.366;12.348;2023-07-13T04:59:51;3.73;;;1.70;;
18190;SDS011;47004;51.366;12.348;2023-07-13T05:01:53;3.20;;;1.80;;
18190;SDS011;47004;51.366;12.348;2023-07-13T05:03:55;4.33;;;1.93;;
18190;SDS011;47004;51.366;12.348;2023-07-13T05:05:59;5.27;;;2.50;;
18190;SDS011;47004;51.366;12.348;2023-07-13T05:08:01;3.87;;;2.30;;
18190;SDS011;47004;51.366;12.348;2023-07-13T05:10:05;5.37;;;2.30;;
18190;SDS011;47004;51.366;12.348;2023-07-13T05:12:08;5.13;;;2.20;;
18190;SDS011;47004;51.366;12.348;2023-07-13T05:14:10;4.20;;;2.07;;
18190;SDS011;47004;51.366;12.348;2023-07-13T05:16:12;4.87;;;1.97;;
18190;SDS011;47004;51.366;12.348;2023-07-13T05:18:14;2.97;;;1.70;;
18190;SDS011;47004;51.366;12.348;2023-07-13T05:20:16;3.20;;;1.80;;
18190;SDS011;47004;51.366;12.348;2023-07-13T05:22:19;5.70;;;2.20;;
18190;SDS011;47004;51.366;12.348;2023-07-13T05:24:21;6.37;;;2.03;;
18190;SDS011;47004;51.366;12.348;2023-07-13T05:26:24;6.73;;;1.93;;
18190;SDS011;47004;51.366;12.348;2023-07-13T05:28:26;2.93;;;1.70;;
18190;SDS011;47004;51.366;12.348;2023-07-13T05:30:28;8.50;;;2.70;;
18190;SDS011;47004;51.366;12.348;2023-07-13T05:32:30;4.30;;;1.80;;
18190;SDS011;47004;51.366;12.348;2023-07-13T05:34:32;3.97;;;2.10;;
18190;SDS011;47004;51.366;12.348;2023-07-13T05:36:34;3.20;;;1.90;;
18190;SDS011;47004;51.366;12.348;2023-07-13T05:38:36;4.50;;;1.80;;
18190;SDS011;47004;51.366;12.348;2023-07-13T05:40:38;4.90;;;2.10;;
18190;SDS011;47004;51.366;12.348;2023-07-13T05:42:41;5.60;;;2.00;;
18190;SDS011;47004;51.366;12.348;2023-07-13T05:44:43;2.37;;;1.73;;
18190;SDS011;47004;51.366;12.348;2023-07-13T05:46:44;3.93;;;1.90;;
18190;SDS011;47004;51.366;12.348;2023-07-13T05:48:46;4.90;;;1.80;;
18190;SDS011;47004;51.366;12.348;2023-07-13T05:50:48;4.37;;;1.80;;
18190;SDS011;47004;51.366;12.348;2023-07-13T05:52:50;7.83;;;1.97;;
18190;SDS011;47004;51.366;12.348;2023-07-13T05:54:52;5.00;;;1.93;;
18190;SDS011;47004;51.366;12.348;2023-07-13T05:56:54;3.53;;;1.50;;
18190;SDS011;47004;51.366;12.348;2023-07-13T05:58:57;8.47;;;1.90;;
18190;SDS011;47004;51.366;12.348;2023-07-13T06:01:00;3.43;;;1.97;;
18190;SDS011;47004;51.366;12.348;2023-07-13T06:03:03;7.60;;;2.17;;
18190;SDS011;47004;51.366;12.348;2023-07-13T06:05:07;5.60;;;1.93;;
18190;SDS011;47004;51.366;12.348;2023-07-13T06:07:09;3.50;;;1.70;;
18190;SDS011;47004;51.366;12.348;2023-07-13T06:09:11;4.03;;;1.80;;
18190;SDS011;47004;51.366;12.348;2023-07-13T06:11:14;3.57;;;1.93;;
18190;SDS011;47004;51.366;12.348;2023-07-13T06:13:17;3.60;;;1.97;;
18190;SDS011;47004;51.366;12.348;2023-07-13T06:15:20;3.97;;;1.97;;
18190;SDS011;47004;51.366;12.348;2023-07-13T06:17:22;4.10;;;1.53;;
18190;SDS011;47004;51.366;12.348;2023-07-13T06:19:24;2.97;;;1.70;;
18190;SDS011;47004;51.366;12.348;2023-07-13T06:21:26;5.23;;;2.00;;
18190;SDS011;47004;51.366;12.348;2023-07-13T06:23:28;4.20;;;1.73;;
18190;SDS011;47004;51.366;12.348;2023-07-13T06:25:28;3.03;;;1.47;;
18190;SDS011;47004;51.366;12.348;2023-07-13T06:27:30;2.67;;;1.30;;
18190;SDS011;47004;51.366;12.348;2023-07-13T06:29:32;2.23;;;1.30;;
18190;SDS011;47004;51.366;12.348;2023-07-13T06:31:35;1.97;;;1.30;;
18190;SDS011;47004;51.366;12.348;2023-07-13T06:33:37;4.90;;;1.87;;
18190;SDS011;47004;51.366;12.348;2023-07-13T06:35:40;4.73;;;1.90;;
18190;SDS011;47004;51.366;12.348;2023-07-13T06:37:41;4.90;;;1.83;;
18190;SDS011;47004;51.366;12.348;2023-07-13T06:39:43;3.70;;;1.43;;
18190;SDS011;47004;51.366;12.348;2023-07-13T06:41:45;5.10;;;1.70;;
18190;SDS011;47004;51.366;12.348;2023-07-13T06:43:47;8.00;;;1.70;;
18190;SDS011;47004;51.366;12.348;2023-07-13T06:45:49;7.23;;;1.70;;
18190;SDS011;47004;51.366;12.348;2023-07-13T06:47:52;4.90;;;1.70;;
18190;SDS011;47004;51.366;12.348;2023-07-13T06:49:55;3.40;;;1.50;;
18190;SDS011;47004;51.366;12.348;2023-07-13T06:51:57;2.80;;;1.30;;
18190;SDS011;47004;51.366;12.348;2023-07-13T06:53:58;2.73;;;1.60;;
18190;SDS011;47004;51.366;12.348;2023-07-13T06:56:00;4.17;;;1.50;;
18190;SDS011;47004;51.366;12.348;2023-07-13T06:58:02;3.53;;;1.40;;
18190;SDS011;47004;51.366;12.348;2023-07-13T07:00:05;2.80;;;1.33;;
18190;SDS011;47004;51.366;12.348;2023-07-13T07:02:10;4.30;;;1.50;;
18190;SDS011;47004;51.366;12.348;2023-07-13T07:04:13;5.13;;;1.27;;
18190;SDS011;47004;51.366;12.348;2023-07-13T07:06:16;3.23;;;1.70;;
18190;SDS011;47004;51.366;12.348;2023-07-13T07:08:19;3.63;;;1.63;;
18190;SDS011;47004;51.366;12.348;2023-07-13T07:10:21;3.70;;;1.50;;
18190;SDS011;47004;51.366;12.348;2023-07-13T07:12:23;3.47;;;1.50;;
18190;SDS011;47004;51.366;12.348;2023-07-13T07:14:25;8.57;;;1.87;;
18190;SDS011;47004;51.366;12.348;2023-07-13T07:16:27;2.10;;;1.47;;
18190;SDS011;47004;51.366;12.348;2023-07-13T07:18:28;4.20;;;1.50;;
18190;SDS011;47004;51.366;12.348;2023-07-13T07:20:32;3.33;;;1.40;;
18190;SDS011;47004;51.366;12.348;2023-07-13T07:22:34;2.80;;;1.43;;
18190;SDS011;47004;51.366;12.348;2023-07-13T07:24:35;5.63;;;2.17;;
18190;SDS011;47004;51.366;12.348;2023-07-13T07:26:37;6.47;;;2.60;;
18190;SDS011;47004;51.366;12.348;2023-07-13T07:28:39;5.53;;;1.90;;
18190;SDS011;47004;51.366;12.348;2023-07-13T07:30:41;3.57;;;1.43;;
18190;SDS011;47004;51.366;12.348;2023-07-13T07:32:43;5.27;;;1.73;;
18190;SDS011;47004;51.366;12.348;2023-07-13T07:34:45;6.13;;;1.53;;
18190;SDS011;47004;51.366;12.348;2023-07-13T07:36:49;5.20;;;1.30;;
18190;SDS011;47004;51.366;12.348;2023-07-13T07:38:51;7.27;;;1.53;;
18190;SDS011;47004;51.366;12.348;2023-07-13T07:40:52;4.90;;;1.50;;
18190;SDS011;47004;51.366;12.348;2023-07-13T07:42:55;2.53;;;1.10;;
18190;SDS011;47004;51.366;12.348;2023-07-13T07:44:56;4.10;;;1.30;;
18190;SDS011;47004;51.366;12.348;2023-07-13T07:46:58;3.37;;;1.43;;
18190;SDS011;47004;51.366;12.348;2023-07-13T07:49:00;4.13;;;1.60;;
18190;SDS011;47004;51.366;12.348;2023-07-13T07:51:02;3.03;;;1.30;;
18190;SDS011;47004;51.366;12.348;2023-07-13T07:53:06;3.23;;;1.23;;
18190;SDS011;47004;51.366;12.348;2023-07-13T07:55:12;2.10;;;0.90;;
18190;SDS011;47004;51.366;12.348;2023-07-13T07:57:14;2.73;;;1.20;;
18190;SDS011;47004;51.366;12.348;2023-07-13T07:59:16;2.47;;;1.10;;
18190;SDS011;47004;51.366;12.348;2023-07-13T08:01:18;3.87;;;1.03;;
18190;SDS011;47004;51.366;12.348;2023-07-13T08:03:20;2.50;;;1.20;;
18190;SDS011;47004;51.366;12.348;2023-07-13T08:05:22;1.97;;;0.90;;
18190;SDS011;47004;51.366;12.348;2023-07-13T08:07:24;3.97;;;1.80;;
18190;SDS011;47004;51.366;12.348;2023-07-13T08:09:27;3.97;;;1.37;;
18190;SDS011;47004;51.366;12.348;2023-07-13T08:11:29;3.33;;;1.13;;
18190;SDS011;47004;51.366;12.348;2023-07-13T08:13:31;3.40;;;1.30;;
18190;SDS011;47004;51.366;12.348;2023-07-13T08:15:33;3.20;;;1.10;;
18190;SDS011;47004;51.366;12.348;2023-07-13T08:17:34;3.67;;;1.13;;
18190;SDS011;47004;51.366;12.348;2023-07-13T08:19:36;3.33;;;1.30;;
18190;SDS011;47004;51.366;12.348;2023-07-13T08:21:38;2.17;;;1.00;;
18190;SDS011;47004;51.366;12.348;2023-07-13T08:23:40;3.30;;;1.27;;
18190;SDS011;47004;51.366;12.348;2023-07-13T08:25:43;6.50;;;1.30;;
18190;SDS011;47004;51.366;12.348;2023-07-13T08:27:51;3.03;;;1.20;;
18190;SDS011;47004;51.366;12.348;2023-07-13T08:29:53;3.00;;;0.90;;
18190;SDS011;47004;51.366;12.348;2023-07-13T08:31:55;2.40;;;0.90;;
18190;SDS011;47004;51.366;12.348;2023-07-13T08:33:58;5.47;;;1.03;;
18190;SDS011;47004;51.366;12.348;2023-07-13T08:36:00;7.97;;;1.20;;
18190;SDS011;47004;51.366;12.348;2023-07-13T08:38:03;5.03;;;1.33;;
18190;SDS011;47004;51.366;12.348;2023-07-13T08:40:05;5.50;;;1.37;;
18190;SDS011;47004;51.366;12.348;2023-07-13T08:42:12;7.17;;;1.40;;
18190;SDS011;47004;51.366;12.348;2023-07-13T08:44:24;3.27;;;1.20;;
18190;SDS011;47004;51.366;12.348;2023-07-13T08:46:32;3.53;;;1.10;;
18190;SDS011;47004;51.366;12.348;2023-07-13T08:48:38;2.27;;;0.97;;
18190;SDS011;47004;51.366;12.348;2023-07-13T08:50:46;2.07;;;1.20;;
18190;SDS011;47004;51.366;12.348;2023-07-13T08:52:53;2.10;;;1.03;;
18190;SDS011;47004;51.366;12.348;2023-07-13T08:54:57;2.13;;;1.00;;
18190;SDS011;47004;51.366;12.348;2023-07-13T08:57:05;6.47;;;1.57;;
18190;SDS011;47004;51.366;12.348;2023-07-13T08:59:15;2.33;;;0.90;;
18190;SDS011;47004;51.366;12.348;2023-07-13T09:01:19;3.93;;;1.20;;
18190;SDS011;47004;51.366;12.348;2023-07-13T09:03:25;2.60;;;1.00;;
18190;SDS011;47004;51.366;12.348;2023-07-13T09:05:33;8.97;;;1.80;;
18190;SDS011;47004;51.366;12.348;2023-07-13T09:07:41;3.17;;;1.17;;
18190;SDS011;47004;51.366;12.348;2023-07-13T09:09:58;4.00;;;1.10;;
18190;SDS011;47004;51.366;12.348;2023-07-13T09:12:09;2.07;;;1.17;;
18190;SDS011;47004;51.366;12.348;2023-07-13T09:14:29;3.60;;;1.20;;
18190;SDS011;47004;51.366;12.348;2023-07-13T09:16:37;4.50;;;1.57;;
18190;SDS011;47004;51.366;12.348;2023-07-13T09:18:41;3.87;;;1.30;;
18190;SDS011;47004;51.366;12.348;2023-07-13T09:20:47;5.70;;;1.40;;
18190;SDS011;47004;51.366;12.348;2023-07-13T09:22:52;6.20;;;1.37;;
18190;SDS011;47004;51.366;12.348;2023-07-13T09:24:57;3.63;;;1.03;;
18190;SDS011;47004;51.366;12.348;2023-07-13T09:27:03;7.17;;;1.40;;
18190;SDS011;47004;51.366;12.348;2023-07-13T09:29:20;3.33;;;1.03;;
18190;SDS011;47004;51.366;12.348;2023-07-13T09:31:28;6.53;;;1.17;;
18190;SDS011;47004;51.366;12.348;2023-07-13T09:33:35;2.50;;;1.10;;
18190;SDS011;47004;51.366;12.348;2023-07-13T09:35:36;4.30;;;1.37;;
18190;SDS011;47004;51.366;12.348;2023-07-13T09:37:38;3.40;;;1.07;;
18190;SDS011;47004;51.366;12.348;2023-07-13T09:39:41;6.67;;;1.20;;
18190;SDS011;47004;51.366;12.348;2023-07-13T09:41:46;5.80;;;1.43;;
18190;SDS011;47004;51.366;12.348;2023-07-13T09:46:20;3.17;;;1.27;;
18190;SDS011;47004;51.366;12.348;2023-07-13T09:48:23;4.57;;;1.30;;
18190;SDS011;47004;51.366;12.348;2023-07-13T09:50:25;4.50;;;1.10;;
18190;SDS011;47004;51.366;12.348;2023-07-13T09:52:39;2.57;;;0.90;;
18190;SDS011;47004;51.366;12.348;2023-07-13T09:54:44;3.93;;;1.00;;
18190;SDS011;47004;51.366;12.348;2023-07-13T09:56:48;4.97;;;1.10;;
18190;SDS011;47004;51.366;12.348;2023-07-13T09:58:56;4.00;;;0.90;;
18190;SDS011;47004;51.366;12.348;2023-07-13T10:00:59;2.47;;;1.17;;
18190;SDS011;47004;51.366;12.348;2023-07-13T10:03:05;3.20;;;1.23;;
18190;SDS011;47004;51.366;12.348;2023-07-13T10:05:15;6.37;;;1.40;;
18190;SDS011;47004;51.366;12.348;2023-07-13T10:07:21;3.17;;;1.20;;
18190;SDS011;47004;51.366;12.348;2023-07-13T10:09:23;6.80;;;1.20;;
18190;SDS011;47004;51.366;12.348;2023-07-13T10:11:26;5.83;;;1.23;;
18190;SDS011;47004;51.366;12.348;2023-07-13T10:13:32;3.67;;;1.00;;
18190;SDS011;47004;51.366;12.348;2023-07-13T10:15:36;3.17;;;1.07;;
18190;SDS011;47004;51.366;12.348;2023-07-13T10:17:38;4.67;;;1.10;;
18190;SDS011;47004;51.366;12.348;2023-07-13T10:19:42;2.97;;;1.10;;
18190;SDS011;47004;51.366;12.348;2023-07-13T10:21:46;2.87;;;1.23;;
18190;SDS011;47004;51.366;12.348;2023-07-13T10:23:55;4.37;;;1.63;;
18190;SDS011;47004;51.366;12.348;2023-07-13T10:26:03;6.80;;;1.50;;
18190;SDS011;47004;51.366;12.348;2023-07-13T10:28:11;2.37;;;1.03;;
18190;SDS011;47004;51.366;12.348;2023-07-13T10:30:23;2.13;;;1.10;;
18190;SDS011;47004;51.366;12.348;2023-07-13T10:32:28;6.10;;;1.40;;
18190;SDS011;47004;51.366;12.348;2023-07-13T10:34:30;5.43;;;1.37;;
18190;SDS011;47004;51.366;12.348;2023-07-13T10:36:37;6.17;;;1.20;;
18190;SDS011;47004;51.366;12.348;2023-07-13T10:38:43;3.80;;;1.20;;
18190;SDS011;47004;51.366;12.348;2023-07-13T10:40:50;4.80;;;1.30;;
18190;SDS011;47004;51.366;12.348;2023-07-13T10:42:57;3.60;;;1.13;;
18190;SDS011;47004;51.366;12.348;2023-07-13T10:45:11;2.03;;;1.03;;
18190;SDS011;47004;51.366;12.348;2023-07-13T10:47:15;4.70;;;1.13;;
18190;SDS011;47004;51.366;12.348;2023-07-13T10:49:18;2.33;;;1.00;;
18190;SDS011;47004;51.366;12.348;2023-07-13T10:51:21;3.93;;;1.00;;
18190;SDS011;47004;51.366;12.348;2023-07-13T10:53:29;3.77;;;1.03;;
18190;SDS011;47004;51.366;12.348;2023-07-13T10:55:33;4.73;;;1.10;;
18190;SDS011;47004;51.366;12.348;2023-07-13T10:57:41;3.23;;;1.20;;
18190;SDS011;47004;51.366;12.348;2023-07-13T10:59:45;4.20;;;1.00;;
18190;SDS011;47004;51.366;12.348;2023-07-13T11:01:50;5.23;;;1.30;;
18190;SDS011;47004;51.366;12.348;2023-07-13T11:04:00;4.57;;;1.10;;
18190;SDS011;47004;51.366;12.348;2023-07-13T11:06:08;1.50;;;0.87;;
18190;SDS011;47004;51.366;12.348;2023-07-13T11:08:16;3.83;;;0.83;;
18190;SDS011;47004;51.366;12.348;2023-07-13T11:12:50;3.10;;;1.00;;
18190;SDS011;47004;51.366;12.348;2023-07-13T11:15:01;1.70;;;0.70;;
18190;SDS011;47004;51.366;12.348;2023-07-13T11:17:33;4.47;;;0.90;;
18190;SDS011;47004;51.366;12.348;2023-07-13T11:19:38;3.20;;;1.00;;
18190;SDS011;47004;51.366;12.348;2023-07-13T11:22:01;1.90;;;0.60;;
18190;SDS011;47004;51.366;12.348;2023-07-13T11:24:13;4.27;;;1.13;;
18190;SDS011;47004;51.366;12.348;2023-07-13T11:28:43;2.67;;;0.80;;
18190;SDS011;47004;51.366;12.348;2023-07-13T11:31:00;2.73;;;0.70;;
18190;SDS011;47004;51.366;12.348;2023-07-13T11:33:10;1.50;;;0.63;;
18190;SDS011;47004;51.366;12.348;2023-07-13T11:35:17;1.30;;;0.80;;
18190;SDS011;47004;51.366;12.348;2023-07-13T11:37:23;3.00;;;0.87;;
18190;SDS011;47004;51.366;12.348;2023-07-13T11:39:27;1.27;;;0.80;;
18190;SDS011;47004;51.366;12.348;2023-07-13T11:41:33;3.27;;;0.90;;
18190;SDS011;47004;51.366;12.348;2023-07-13T11:43:39;2.50;;;1.00;;
18190;SDS011;47004;51.366;12.348;2023-07-13T11:45:42;4.63;;;1.03;;
18190;SDS011;47004;51.366;12.348;2023-07-13T11:47:43;7.37;;;1.27;;
18190;SDS011;47004;51.366;12.348;2023-07-13T11:49:48;1.23;;;1.03;;
18190;SDS011;47004;51.366;12.348;2023-07-13T11:51:52;1.97;;;1.03;;
18190;SDS011;47004;51.366;12.348;2023-07-13T11:53:55;2.73;;;1.33;;
18190;SDS011;47004;51.366;12.348;2023-07-13T11:55:58;4.05;;;1.00;;
18190;SDS011;47004;51.366;12.348;2023-07-13T11:58:00;3.78;;;0.90;;
18190;SDS011;47004;51.366;12.348;2023-07-13T12:00:10;3.60;;;0.80;;
18190;SDS011;47004;51.366;12.348;2023-07-13T12:02:16;2.22;;;1.13;;
18190;SDS011;47004;51.366;12.348;2023-07-13T12:04:23;1.70;;;0.80;;
18190;SDS011;47004;51.366;12.348;2023-07-13T12:06:28;3.03;;;0.73;;
18190;SDS011;47004;51.366;12.348;2023-07-13T12:08:31;3.50;;;0.70;;
18190;SDS011;47004;51.366;12.348;2023-07-13T12:10:39;2.03;;;0.90;;
18190;SDS011;47004;51.366;12.348;2023-07-13T12:12:46;1.83;;;0.70;;
18190;SDS011;47004;51.366;12.348;2023-07-13T12:14:50;2.75;;;0.70;;
18190;SDS011;47004;51.366;12.348;2023-07-13T12:16:54;3.10;;;0.75;;
18190;SDS011;47004;51.366;12.348;2023-07-13T12:18:57;2.00;;;0.70;;
18190;SDS011;47004;51.366;12.348;2023-07-13T12:21:00;2.72;;;0.75;;
18190;SDS011;47004;51.366;12.348;2023-07-13T12:23:04;2.17;;;0.77;;